Time;durP1;ratioP1;P1;durP2;ratioP2;P2;SDS_P1;SDS_P2;PMS_P1;PMS_P2;Temp;Humidity;BMP_temperature;BMP_pressure;BME280_temperature;BME280_humidity;BME280_pressure;Samples;Min_cycle;Max_cycle;Signal;HPM_P1;HPM_P2
2022/07/27 00:02:03;;;;;;;;;;;;;;;15.64;85.53;98210.81;106082;1277;126249;-78
2022/07/27 00:04:29;;;;;;;;;;;;;;;15.64;85.41;98210.27;105995;1277;22611;-78
2022/07/27 00:06:56;;;;;;;;;;;;;;;15.64;85.49;98214.44;105742;1280;22541;-78
2022/07/27 00:09:23;;;;;;;;;;;;;;;15.65;85.60;98217.61;106144;1277;123911;-78
2022/07/27 00:11:49;;;;;;;;;;;;;;;15.63;85.63;98213.23;105639;1280;22775;-78
2022/07/27 00:14:16;;;;;;;;;;;;;;;15.59;85.53;98211.60;105708;1280;124637;-78
2022/07/27 00:16:42;;;;;;;;;;;;;;;15.56;85.40;98211.52;105854;1277;22557;-78
2022/07/27 00:19:08;;;;;;;;;;;;;;;15.53;85.71;98207.42;105773;1280;26597;-79
2022/07/27 00:21:34;;;;;;;;;;;;;;;15.54;85.84;98207.52;105899;1277;127039;-78
2022/07/27 00:24:00;;;;;;;;;;;;;;;15.54;85.77;98209.50;105897;1277;25251;-79
2022/07/27 00:26:26;;;;;;;;;;;;;;;15.47;85.39;98205.41;105981;1277;124252;-81
2022/07/27 00:28:52;;;;;;;;;;;;;;;15.38;85.43;98205.30;106233;1277;22803;-80
2022/07/27 00:31:18;;;;;;;;;;;;;;;15.30;85.85;98205.52;106147;1280;22705;-81
2022/07/27 00:33:44;;;;;;;;;;;;;;;15.29;86.28;98206.55;106043;1277;125149;-80
2022/07/27 00:36:12;;;;;;;;;;;;;;;15.30;86.56;98207.88;106272;1277;22550;-81
2022/07/27 00:38:38;;;;;;;;;;;;;;;15.31;86.82;98205.22;106682;1277;125033;-78
2022/07/27 00:41:04;;;;;;;;;;;;;;;15.31;86.61;98208.90;106278;1277;22743;-78
2022/07/27 00:43:30;;;;;;;;;;;;;;;15.28;86.58;98214.09;106001;1277;25429;-81
2022/07/27 00:45:56;;;;;;;;;;;;;;;15.25;86.79;98215.08;106107;1277;124875;-78
2022/07/27 00:48:24;;;;;;;;;;;;;;;15.23;86.86;98219.20;106094;1277;22735;-78
2022/07/27 00:50:51;;;;;;;;;;;;;;;15.20;87.02;98218.55;106033;1277;124480;-78
2022/07/27 00:53:21;;;;;;;;;;;;;;;15.18;87.12;98215.00;106497;1277;23411;-80
2022/07/27 00:55:47;;;;;;;;;;;;;;;15.16;87.27;98212.98;106092;1277;22527;-80
2022/07/27 00:58:13;;;;;;;;;;;;;;;15.14;87.44;98207.62;105857;1277;124766;-81
2022/07/27 01:00:39;;;;;;;;;;;;;;;15.15;87.78;98207.72;106063;1280;22536;-78
2022/07/27 01:03:07;;;;;;;;;;;;;;;15.17;87.73;98210.40;106233;1277;124615;-79
2022/07/27 01:05:34;;;;;;;;;;;;;;;15.19;87.88;98208.52;106588;1277;23276;-79
2022/07/27 01:08:02;;;;;;;;;;;;;;;15.23;88.00;98211.91;106035;1277;124206;-81
2022/07/27 01:10:32;;;;;;;;;;;;;;;15.25;88.01;98215.67;106004;1277;24232;-78
2022/07/27 01:12:58;;;;;;;;;;;;;;;15.24;87.59;98217.11;106184;1277;25332;-78
2022/07/27 01:15:27;;;;;;;;;;;;;;;15.24;87.97;98220.36;105861;1277;124644;-77
2022/07/27 01:17:53;;;;;;;;;;;;;;;15.22;87.62;98221.41;106318;1277;22570;-78
2022/07/27 01:20:19;;;;;;;;;;;;;;;15.21;87.86;98222.07;105811;1277;125143;-78
2022/07/27 01:22:45;;;;;;;;;;;;;;;15.20;87.79;98225.58;106034;1277;25016;-77
2022/07/27 01:25:11;;;;;;;;;;;;;;;15.15;87.68;98225.05;106109;1277;22529;-77
2022/07/27 01:27:38;;;;;;;;;;;;;;;15.12;87.88;98226.60;106058;1277;124861;-77
2022/07/27 01:30:25;;;;;;;;;;;;;;;15.09;87.82;98226.08;106045;1277;22692;-77
2022/07/27 01:32:58;;;;;;;;;;;;;;;15.07;87.72;98223.61;106075;1277;124655;-77
2022/07/27 01:35:25;;;;;;;;;;;;;;;15.05;87.84;98225.52;106053;1277;22551;-77
2022/07/27 01:37:51;;;;;;;;;;;;;;;15.04;87.80;98224.82;106077;1280;22584;-77
2022/07/27 01:40:17;;;;;;;;;;;;;;;15.00;87.57;98220.22;106279;1277;123864;-77
2022/07/27 01:42:43;;;;;;;;;;;;;;;14.97;87.78;98214.48;106321;1280;22551;-77
2022/07/27 01:45:09;;;;;;;;;;;;;;;14.92;87.48;98212.30;105993;1280;124429;-78
2022/07/27 01:47:35;;;;;;;;;;;;;;;14.83;87.39;98209.92;106018;1280;24271;-77
2022/07/27 01:50:02;;;;;;;;;;;;;;;14.80;87.70;98211.90;106202;1277;124808;-78
2022/07/27 01:52:28;;;;;;;;;;;;;;;14.73;87.73;98213.35;106454;1277;22530;-77
2022/07/27 01:54:55;;;;;;;;;;;;;;;14.70;88.29;98213.95;106219;1277;24222;-78
2022/07/27 01:57:23;;;;;;;;;;;;;;;14.73;88.58;98213.52;106120;1277;124754;-78
2022/07/27 01:59:51;;;;;;;;;;;;;;;14.77;88.73;98212.69;106271;1278;22519;-78
2022/07/27 02:02:17;;;;;;;;;;;;;;;14.80;88.60;98209.94;106039;1277;124849;-77
2022/07/27 02:04:43;;;;;;;;;;;;;;;14.80;88.37;98208.89;106244;1277;22544;-78
2022/07/27 02:07:12;;;;;;;;;;;;;;;14.78;88.43;98205.23;106254;1277;23598;-78
2022/07/27 02:09:38;;;;;;;;;;;;;;;14.73;88.48;98204.52;105899;1277;123901;-77
2022/07/27 02:14:43;;;;;;;;;;;;;;;14.63;88.61;98211.85;105849;1280;124675;-78
2022/07/27 02:17:11;;;;;;;;;;;;;;;14.57;88.61;98210.08;106377;1277;24306;-78
2022/07/27 02:19:37;;;;;;;;;;;;;;;14.52;88.62;98209.41;106233;1277;22551;-77
2022/07/27 02:22:03;;;;;;;;;;;;;;;14.49;88.89;98207.83;105920;1277;124933;-77
2022/07/27 02:24:31;;;;;;;;;;;;;;;14.48;88.77;98206.58;106352;1277;22649;-77
2022/07/27 02:26:57;;;;;;;;;;;;;;;14.48;88.85;98209.09;106134;1277;125350;-78
2022/07/27 02:29:23;;;;;;;;;;;;;;;14.49;88.76;98212.44;106340;1280;22768;-77
2022/07/27 02:32:05;;;;;;;;;;;;;;;14.44;88.46;98214.64;106153;1280;124834;-77
2022/07/27 02:34:30;;;;;;;;;;;;;;;14.41;88.46;98219.52;106381;1280;23946;-77
2022/07/27 02:36:56;;;;;;;;;;;;;;;14.36;88.24;98219.70;105968;1277;24261;-77
2022/07/27 02:39:23;;;;;;;;;;;;;;;14.28;88.48;98220.73;106318;1278;125211;-77
2022/07/27 02:41:49;;;;;;;;;;;;;;;14.21;88.54;98220.35;106227;1277;25413;-77
2022/07/27 02:44:16;;;;;;;;;;;;;;;14.13;88.93;98218.06;106067;1277;124992;-77
2022/07/27 02:46:42;;;;;;;;;;;;;;;14.07;89.27;98224.58;106153;1277;22542;-77
2022/07/27 02:49:08;;;;;;;;;;;;;;;14.03;89.60;98232.91;106157;1277;23279;-77
2022/07/27 02:51:35;;;;;;;;;;;;;;;14.01;90.09;98238.15;106626;1277;124602;-77
2022/07/27 02:54:15;;;;;;;;;;;;;;;14.03;90.45;98237.45;106569;1277;25398;-77
2022/07/27 02:56:41;;;;;;;;;;;;;;;14.07;90.53;98236.62;106225;1277;125424;-77
2022/07/27 02:59:07;;;;;;;;;;;;;;;14.09;90.68;98235.48;106364;1277;22560;-77
2022/07/27 03:01:33;;;;;;;;;;;;;;;14.12;91.02;98235.36;106132;1277;22729;-78
2022/07/27 03:04:01;;;;;;;;;;;;;;;14.19;91.31;98237.34;106719;1277;126255;-77
2022/07/27 03:06:29;;;;;;;;;;;;;;;14.22;91.28;98239.09;106343;1277;22990;-77
2022/07/27 03:08:58;;;;;;;;;;;;;;;14.26;91.25;98247.64;106375;1277;124661;-78
2022/07/27 03:11:24;;;;;;;;;;;;;;;14.29;91.08;98256.50;106037;1280;22544;-77
2022/07/27 03:13:50;;;;;;;;;;;;;;;14.32;90.88;98255.03;106080;1277;25225;-77
2022/07/27 03:16:16;;;;;;;;;;;;;;;14.34;90.77;98256.30;106080;1277;125111;-77
2022/07/27 03:18:42;;;;;;;;;;;;;;;14.33;90.50;98258.36;106004;1277;22547;-77
2022/07/27 03:21:08;;;;;;;;;;;;;;;14.28;90.30;98257.66;105799;1278;125047;-77
2022/07/27 03:23:34;;;;;;;;;;;;;;;14.21;90.19;98257.21;106415;1277;24305;-77
2022/07/27 03:26:00;;;;;;;;;;;;;;;14.14;90.50;98254.42;106202;1277;125043;-77
2022/07/27 03:28:26;;;;;;;;;;;;;;;14.13;90.83;98257.71;106156;1277;22564;-77
2022/07/27 03:30:52;;;;;;;;;;;;;;;14.13;90.84;98260.83;106658;1277;22572;-77
2022/07/27 03:33:18;;;;;;;;;;;;;;;14.12;91.01;98260.34;106193;1277;125164;-77
2022/07/27 03:35:44;;;;;;;;;;;;;;;14.13;91.31;98263.30;106212;1277;22547;-77
2022/07/27 03:38:10;;;;;;;;;;;;;;;14.18;91.42;98260.40;106018;1277;124894;-77
2022/07/27 03:40:36;;;;;;;;;;;;;;;14.24;91.57;98256.13;106364;1277;23634;-77
2022/07/27 03:43:02;;;;;;;;;;;;;;;14.30;91.43;98260.67;106211;1277;25392;-77
2022/07/27 03:45:28;;;;;;;;;;;;;;;14.36;91.53;98265.17;105697;1281;124938;-77
2022/07/27 03:47:54;;;;;;;;;;;;;;;14.46;91.83;98264.34;106316;1277;24359;-77
2022/07/27 03:50:35;;;;;;;;;;;;;;;14.56;91.47;98265.23;105932;1279;125284;-77
2022/07/27 03:53:01;;;;;;;;;;;;;;;14.65;91.00;98261.88;106053;1280;22541;-77
2022/07/27 03:55:27;;;;;;;;;;;;;;;14.69;90.52;98255.95;106344;1280;22544;-77
2022/07/27 03:58:08;;;;;;;;;;;;;;;14.74;90.40;98255.99;106109;1278;124841;-78
2022/07/27 04:00:34;;;;;;;;;;;;;;;14.78;90.16;98261.48;106109;1278;22555;-77
2022/07/27 04:03:00;;;;;;;;;;;;;;;14.80;89.87;98264.92;106171;1277;124060;-77
2022/07/27 04:05:26;;;;;;;;;;;;;;;14.83;89.63;98271.67;105892;1281;24383;-78
2022/07/27 04:07:52;;;;;;;;;;;;;;;14.85;89.49;98272.15;106661;1280;22693;-78
2022/07/27 04:10:18;;;;;;;;;;;;;;;14.88;89.10;98272.91;106085;1279;124710;-78
2022/07/27 04:12:59;;;;;;;;;;;;;;;14.90;89.17;98271.81;105933;1281;24298;-78
2022/07/27 04:15:25;;;;;;;;;;;;;;;14.93;89.00;98272.36;105826;1281;124422;-78
2022/07/27 04:17:52;;;;;;;;;;;;;;;14.95;88.75;98278.10;106259;1279;22737;-78
2022/07/27 04:20:33;;;;;;;;;;;;;;;14.98;88.80;98278.98;106145;1280;125592;-77
2022/07/27 04:22:59;;;;;;;;;;;;;;;15.00;88.38;98279.13;105989;1280;25305;-77
2022/07/27 04:25:25;;;;;;;;;;;;;;;15.02;88.22;98281.61;106263;1281;22695;-77
2022/07/27 04:27:53;;;;;;;;;;;;;;;15.02;88.31;98274.86;105938;1281;124783;-77
2022/07/27 04:30:19;;;;;;;;;;;;;;;15.04;88.33;98276.11;106293;1280;22571;-77
2022/07/27 04:32:45;;;;;;;;;;;;;;;15.05;88.26;98273.04;106527;1280;124448;-77
2022/07/27 04:35:11;;;;;;;;;;;;;;;15.06;88.32;98275.84;105897;1281;22544;-77
2022/07/27 04:37:37;;;;;;;;;;;;;;;15.08;88.23;98276.42;106016;1281;24377;-77
2022/07/27 04:40:04;;;;;;;;;;;;;;;15.09;88.27;98277.46;105749;1281;125351;-77
2022/07/27 04:42:30;;;;;;;;;;;;;;;15.12;88.23;98278.61;106804;1281;23210;-77
2022/07/27 04:45:10;;;;;;;;;;;;;;;15.14;88.14;98284.74;106274;1281;125622;-77
2022/07/27 04:47:36;;;;;;;;;;;;;;;15.16;88.13;98283.98;106306;1277;22548;-77
2022/07/27 04:50:02;;;;;;;;;;;;;;;15.13;88.03;98281.57;105897;1281;124842;-77
2022/07/27 04:52:28;;;;;;;;;;;;;;;15.13;88.26;98283.70;106068;1281;22834;-77
2022/07/27 04:54:55;;;;;;;;;;;;;;;15.14;87.99;98290.08;105825;1284;25251;-77
2022/07/27 04:57:22;;;;;;;;;;;;;;;15.15;88.11;98288.47;106191;1281;125417;-77
2022/07/27 04:59:48;;;;;;;;;;;;;;;15.17;88.09;98288.02;106535;1280;22560;-77
2022/07/27 05:02:13;;;;;;;;;;;;;;;15.23;88.28;98286.73;106159;1281;124945;-77
2022/07/27 05:04:40;;;;;;;;;;;;;;;15.30;88.29;98284.14;106100;1277;25496;-77
2022/07/27 05:07:06;;;;;;;;;;;;;;;15.36;88.18;98286.96;106311;1277;22528;-77
2022/07/27 05:09:33;;;;;;;;;;;;;;;15.42;88.04;98290.40;106220;1280;124324;-77
2022/07/27 05:11:59;;;;;;;;;;;;;;;15.47;88.16;98289.13;106119;1281;22553;-78
2022/07/27 05:14:25;;;;;;;;;;;;;;;15.51;87.91;98292.89;106345;1281;125005;-78
2022/07/27 05:16:51;;;;;;;;;;;;;;;15.56;88.13;98294.12;106328;1280;22550;-78
2022/07/27 05:19:17;;;;;;;;;;;;;;;15.63;87.94;98296.19;106016;1280;22538;-77
2022/07/27 05:21:43;;;;;;;;;;;;;;;15.69;87.88;98290.44;106196;1281;125104;-78
2022/07/27 05:24:09;;;;;;;;;;;;;;;15.74;87.57;98291.16;106427;1281;22686;-78
2022/07/27 05:26:35;;;;;;;;;;;;;;;15.79;87.39;98295.20;106475;1278;124707;-77
2022/07/27 05:29:01;;;;;;;;;;;;;;;15.84;87.42;98302.31;106060;1277;22546;-78
2022/07/27 05:31:27;;;;;;;;;;;;;;;15.89;87.56;98303.55;106607;1278;24305;-77
2022/07/27 05:33:54;;;;;;;;;;;;;;;15.94;87.53;98307.41;105985;1279;124409;-77
2022/07/27 05:36:20;;;;;;;;;;;;;;;16.00;87.65;98310.23;106135;1281;22538;-77
2022/07/27 05:39:01;;;;;;;;;;;;;;;16.06;87.40;98307.73;105620;1281;124654;-77
2022/07/27 05:41:27;;;;;;;;;;;;;;;16.11;87.45;98309.01;106070;1281;22561;-78
2022/07/27 05:43:54;;;;;;;;;;;;;;;16.21;87.26;98312.19;105778;1281;22563;-78
2022/07/27 05:46:21;;;;;;;;;;;;;;;16.28;87.44;98306.85;105983;1281;124044;-78
2022/07/27 05:48:47;;;;;;;;;;;;;;;16.37;87.29;98313.88;106188;1281;22780;-78
2022/07/27 05:51:13;;;;;;;;;;;;;;;16.44;87.11;98318.16;105847;1280;124264;-78
2022/07/27 05:53:39;;;;;;;;;;;;;;;16.54;87.03;98322.42;105878;1281;25240;-78
2022/07/27 05:56:06;;;;;;;;;;;;;;;16.65;86.94;98319.92;105798;1278;125264;-78
2022/07/27 05:58:33;;;;;;;;;;;;;;;16.73;86.81;98322.11;105813;1281;24201;-77
2022/07/27 06:00:59;;;;;;;;;;;;;;;16.82;86.75;98325.89;105903;1278;24228;-78
2022/07/27 06:03:25;;;;;;;;;;;;;;;16.91;86.68;98329.28;105942;1277;124424;-79
2022/07/27 06:07:57;;;;;;;;;;;;;;;16.96;86.39;98324.02;106882;1280;22591;-79
2022/07/27 06:08:38;;;;;;;;;;;;;;;17.03;86.50;98316.73;106811;1279;124699;-79
2022/07/27 06:11:04;;;;;;;;;;;;;;;17.13;86.31;98325.65;106893;1280;22537;-79
2022/07/27 06:13:34;;;;;;;;;;;;;;;17.24;85.78;98335.94;106526;1280;24051;-79
2022/07/27 06:16:00;;;;;;;;;;;;;;;17.33;85.46;98336.51;105920;1280;124902;-79
2022/07/27 06:18:26;;;;;;;;;;;;;;;17.43;85.12;98340.41;106232;1280;22531;-79
2022/07/27 06:20:52;;;;;;;;;;;;;;;17.52;85.03;98337.39;106087;1280;124491;-80
2022/07/27 06:23:18;;;;;;;;;;;;;;;17.62;85.15;98341.89;106531;1277;25359;-80
2022/07/27 06:25:44;;;;;;;;;;;;;;;17.71;84.88;98345.09;106369;1280;25363;-80
2022/07/27 06:28:10;;;;;;;;;;;;;;;17.82;84.81;98341.16;106156;1278;124760;-79
2022/07/27 06:30:36;;;;;;;;;;;;;;;17.95;84.59;98341.34;106190;1280;22696;-79
2022/07/27 06:33:03;;;;;;;;;;;;;;;18.03;83.75;98341.17;106121;1279;125120;-79
2022/07/27 06:35:29;;;;;;;;;;;;;;;18.09;83.28;98337.89;106453;1279;22579;-80
2022/07/27 06:37:56;;;;;;;;;;;;;;;18.14;82.95;98337.92;106309;1280;22571;-80
2022/07/27 06:40:22;;;;;;;;;;;;;;;18.21;82.87;98335.19;106336;1280;123934;-80
2022/07/27 06:42:48;;;;;;;;;;;;;;;18.29;82.64;98334.48;106463;1280;24319;-80
2022/07/27 06:45:15;;;;;;;;;;;;;;;18.32;82.18;98332.39;105975;1280;124927;-80
2022/07/27 06:47:41;;;;;;;;;;;;;;;18.36;82.02;98330.83;106439;1280;22692;-81
2022/07/27 06:50:08;;;;;;;;;;;;;;;18.42;81.80;98338.45;106093;1280;124838;-81
2022/07/27 06:52:34;;;;;;;;;;;;;;;18.47;81.53;98341.13;106454;1280;25294;-81
2022/07/27 06:55:15;;;;;;;;;;;;;;;18.58;81.35;98339.91;106066;1280;25461;-80
2022/07/27 06:57:41;;;;;;;;;;;;;;;18.72;81.45;98334.05;106178;1280;124092;-80
2022/07/27 07:00:23;;;;;;;;;;;;;;;18.83;81.19;98336.05;106679;1280;22695;-80
2022/07/27 07:02:57;;;;;;;;;;;;;;;18.86;80.56;98337.38;106072;1279;124487;-81
2022/07/27 07:05:24;;;;;;;;;;;;;;;18.95;80.75;98338.15;105923;1280;24228;-80
2022/07/27 07:07:50;;;;;;;;;;;;;;;19.11;80.71;98340.25;106043;1280;22550;-79
2022/07/27 07:10:16;;;;;;;;;;;;;;;19.26;80.61;98347.65;106047;1280;125103;-80
2022/07/27 07:12:43;;;;;;;;;;;;;;;19.34;80.19;98345.77;106197;1280;23169;-79
2022/07/27 07:15:25;;;;;;;;;;;;;;;19.46;79.47;98347.77;105991;1280;124446;-80
2022/07/27 07:17:52;;;;;;;;;;;;;;;19.54;78.82;98351.13;106300;1280;22564;-80
2022/07/27 07:20:20;;;;;;;;;;;;;;;19.61;78.31;98350.63;106112;1280;124083;-80
2022/07/27 07:22:46;;;;;;;;;;;;;;;19.62;78.21;98347.55;106369;1280;22580;-81
2022/07/27 07:25:12;;;;;;;;;;;;;;;19.67;78.49;98351.38;106697;1280;23177;-81
2022/07/27 07:27:38;;;;;;;;;;;;;;;19.75;78.22;98351.41;106860;1280;124467;-82
2022/07/27 07:30:04;;;;;;;;;;;;;;;19.82;77.72;98350.11;106285;1280;23379;-81
2022/07/27 07:32:30;;;;;;;;;;;;;;;19.93;78.22;98349.94;106617;1281;126063;-81
2022/07/27 07:34:56;;;;;;;;;;;;;;;19.97;77.26;98347.23;106340;1279;22564;-82
2022/07/27 07:37:22;;;;;;;;;;;;;;;20.00;76.93;98346.14;106409;1280;22638;-81
2022/07/27 07:39:48;;;;;;;;;;;;;;;20.04;76.18;98351.08;106435;1280;125317;-81
2022/07/27 07:42:14;;;;;;;;;;;;;;;20.10;75.59;98351.37;106589;1280;22554;-81
2022/07/27 07:44:41;;;;;;;;;;;;;;;20.26;75.31;98363.58;106177;1279;124082;-81
2022/07/27 07:47:08;;;;;;;;;;;;;;;20.35;74.75;98365.42;106138;1280;25474;-81
2022/07/27 07:49:35;;;;;;;;;;;;;;;20.35;74.93;98372.94;106181;1280;24342;-81
2022/07/27 07:52:01;;;;;;;;;;;;;;;20.33;74.66;98370.58;105890;1280;124162;-81
2022/07/27 07:54:27;;;;;;;;;;;;;;;20.31;74.76;98373.36;106126;1278;22536;-81
2022/07/27 07:56:53;;;;;;;;;;;;;;;20.32;74.18;98380.11;106264;1279;124415;-80
2022/07/27 07:59:19;;;;;;;;;;;;;;;20.35;74.35;98381.63;106154;1280;24331;-80
2022/07/27 08:01:45;;;;;;;;;;;;;;;20.39;73.86;98381.98;106331;1278;25414;-81
2022/07/27 08:04:11;;;;;;;;;;;;;;;20.41;73.24;98385.35;105992;1280;124176;-81
2022/07/27 08:06:38;;;;;;;;;;;;;;;20.44;73.56;98384.52;106170;1280;25482;-81
2022/07/27 08:09:20;;;;;;;;;;;;;;;20.52;73.48;98383.13;106012;1280;124222;-81
2022/07/27 08:11:46;;;;;;;;;;;;;;;20.64;73.21;98381.41;106279;1280;25289;-81
2022/07/27 08:14:12;;;;;;;;;;;;;;;20.77;73.24;98379.34;106257;1280;125520;-82
2022/07/27 08:16:38;;;;;;;;;;;;;;;20.94;72.74;98377.77;106061;1280;25433;-82
2022/07/27 08:19:04;;;;;;;;;;;;;;;21.11;72.23;98374.03;106273;1280;22546;-82
2022/07/27 08:21:30;;;;;;;;;;;;;;;21.23;71.02;98373.54;106273;1279;123960;-81
2022/07/27 08:23:56;;;;;;;;;;;;;;;21.36;70.55;98378.08;106160;1279;25240;-82
2022/07/27 08:26:37;;;;;;;;;;;;;;;21.40;70.21;98381.39;106323;1279;124243;-82
2022/07/27 08:29:04;;;;;;;;;;;;;;;21.39;70.17;98378.31;106128;1281;24310;-82
2022/07/27 08:31:30;;;;;;;;;;;;;;;21.52;70.19;98382.88;106361;1280;24292;-81
2022/07/27 08:33:56;;;;;;;;;;;;;;;21.61;69.92;98386.50;106192;1279;124451;-81
2022/07/27 08:36:22;;;;;;;;;;;;;;;21.65;69.14;98387.79;106357;1278;25445;-81
2022/07/27 08:38:48;;;;;;;;;;;;;;;21.64;69.13;98382.21;106058;1280;123913;-81
2022/07/27 08:41:15;;;;;;;;;;;;;;;21.73;69.08;98377.64;106319;1280;22715;-81
2022/07/27 08:43:57;;;;;;;;;;;;;;;21.89;69.17;98374.30;106211;1280;22632;-81
2022/07/27 08:46:25;;;;;;;;;;;;;;;22.07;68.61;98375.91;106274;1280;124521;-81
2022/07/27 08:48:51;;;;;;;;;;;;;;;22.32;68.22;98374.70;106197;1280;25366;-81
2022/07/27 08:51:18;;;;;;;;;;;;;;;22.56;66.77;98370.84;106399;1280;124037;-83
2022/07/27 08:53:46;;;;;;;;;;;;;;;22.78;65.50;98372.23;106260;1280;25228;-82
2022/07/27 08:56:12;;;;;;;;;;;;;;;22.93;64.87;98374.05;106017;1280;124324;-82
2022/07/27 08:58:38;;;;;;;;;;;;;;;23.09;65.35;98374.58;106885;1279;22697;-82
2022/07/27 09:01:04;;;;;;;;;;;;;;;23.23;64.73;98368.98;105909;1280;25372;-82
2022/07/27 09:03:30;;;;;;;;;;;;;;;23.35;64.66;98368.04;106450;1280;124472;-82
2022/07/27 09:05:57;;;;;;;;;;;;;;;23.44;64.39;98366.08;106050;1279;22548;-81
2022/07/27 09:08:24;;;;;;;;;;;;;;;23.49;63.40;98373.02;106084;1279;124407;-81
2022/07/27 09:10:53;;;;;;;;;;;;;;;23.50;62.46;98374.00;105967;1279;22547;-82
2022/07/27 09:13:25;;;;;;;;;;;;;;;23.41;62.77;98371.02;106109;1279;22887;-82
2022/07/27 09:15:53;;;;;;;;;;;;;;;23.46;62.77;98367.18;106199;1279;124039;-82
2022/07/27 09:18:36;;;;;;;;;;;;;;;23.54;62.67;98374.97;106194;1280;22630;-82
2022/07/27 09:21:16;;;;;;;;;;;;;;;23.65;62.65;98374.48;106213;1279;124080;-82
2022/07/27 09:23:47;;;;;;;;;;;;;;;23.73;61.80;98373.29;106054;1279;26600;-81
2022/07/27 09:26:20;;;;;;;;;;;;;;;23.76;61.70;98368.40;106423;1280;124215;-82
2022/07/27 09:28:50;;;;;;;;;;;;;;;23.78;61.79;98368.55;106165;1280;25346;-81
2022/07/27 09:31:17;;;;;;;;;;;;;;;23.76;61.60;98366.56;106199;1280;24210;-82
2022/07/27 09:33:47;;;;;;;;;;;;;;;23.75;61.61;98361.59;106619;1278;124123;-81
2022/07/27 09:36:14;;;;;;;;;;;;;;;23.89;61.50;98357.59;106360;1280;22548;-82
2022/07/27 09:38:49;;;;;;;;;;;;;;;24.01;60.92;98356.33;106181;1280;124281;-82
2022/07/27 09:41:15;;;;;;;;;;;;;;;24.11;61.15;98351.20;106315;1280;22526;-82
2022/07/27 09:43:49;;;;;;;;;;;;;;;24.19;61.43;98350.44;106119;1280;24761;-83
2022/07/27 09:46:15;;;;;;;;;;;;;;;24.35;61.33;98346.04;106111;1280;123830;-81
2022/07/27 09:48:41;;;;;;;;;;;;;;;24.44;59.94;98347.33;106235;1280;24220;-82
2022/07/27 09:51:09;;;;;;;;;;;;;;;24.53;59.79;98346.83;106113;1279;124101;-81
2022/07/27 09:53:35;;;;;;;;;;;;;;;24.57;59.51;98344.09;106097;1277;22822;-82
2022/07/27 09:56:16;;;;;;;;;;;;;;;24.52;58.81;98344.20;105715;1280;124235;-82
2022/07/27 09:58:45;;;;;;;;;;;;;;;24.51;57.92;98349.83;106430;1278;22672;-83
2022/07/27 10:01:20;;;;;;;;;;;;;;;24.61;57.44;98344.80;106328;1280;22626;-82
2022/07/27 10:03:48;;;;;;;;;;;;;;;24.59;57.02;98344.98;106206;1279;124433;-82
2022/07/27 10:06:14;;;;;;;;;;;;;;;24.49;57.61;98342.98;106099;1278;25624;-83
2022/07/27 10:08:41;;;;;;;;;;;;;;;24.28;57.60;98341.48;106501;1278;124322;-81
2022/07/27 10:11:08;;;;;;;;;;;;;;;24.06;57.36;98339.68;106128;1280;22725;-82
2022/07/27 10:13:34;;;;;;;;;;;;;;;24.03;57.82;98335.75;106134;1278;22551;-82
2022/07/27 10:16:03;;;;;;;;;;;;;;;24.29;58.68;98336.02;106287;1281;124309;-83
2022/07/27 10:18:59;;;;;;;;;;;;;;;24.57;58.03;98335.75;106151;1277;22553;-82
2022/07/27 10:21:26;;;;;;;;;;;;;;;24.71;58.27;98341.66;106072;1277;124068;-81
2022/07/27 10:23:56;;;;;;;;;;;;;;;24.78;57.60;98346.79;106094;1277;22691;-82
2022/07/27 10:26:22;;;;;;;;;;;;;;;24.88;57.38;98349.38;106113;1280;124304;-82
2022/07/27 10:28:53;;;;;;;;;;;;;;;25.01;57.36;98349.05;106223;1279;26702;-82
2022/07/27 10:31:21;;;;;;;;;;;;;;;25.24;57.36;98342.62;106066;1280;25421;-82
2022/07/27 10:33:48;;;;;;;;;;;;;;;25.55;58.20;98343.02;106116;1280;123958;-81
2022/07/27 10:36:29;;;;;;;;;;;;;;;25.79;55.91;98343.49;106063;1280;25312;-82
2022/07/27 10:38:56;;;;;;;;;;;;;;;25.92;55.42;98340.58;106074;1280;124938;-83
2022/07/27 10:41:27;;;;;;;;;;;;;;;26.22;56.37;98344.33;106360;1280;24283;-82
2022/07/27 10:44:07;;;;;;;;;;;;;;;26.47;54.85;98342.02;106354;1279;25333;-82
2022/07/27 10:46:35;;;;;;;;;;;;;;;26.73;55.06;98347.59;106167;1280;23393;-82
2022/07/27 10:49:15;;;;;;;;;;;;;;;26.94;54.08;98347.24;106365;1280;22552;-82
2022/07/27 10:51:42;;;;;;;;;;;;;;;27.11;52.69;98348.88;106036;1280;124193;-82
2022/07/27 10:54:22;;;;;;;;;;;;;;;27.08;51.71;98350.11;106282;1280;25581;-82
2022/07/27 10:56:50;;;;;;;;;;;;;;;27.03;51.18;98350.92;106217;1279;125403;-83
2022/07/27 10:59:30;;;;;;;;;;;;;;;26.98;51.44;98347.83;106034;1279;22557;-83
2022/07/27 11:01:57;;;;;;;;;;;;;;;26.90;51.39;98347.61;106360;1279;25269;-83
2022/07/27 11:10:14;;;;;;;;;;;;;;;26.60;50.66;98347.63;107057;1282;124059;-91
2022/07/27 11:12:41;;;;;;;;;;;;;;;26.42;50.68;98346.20;106029;1286;22782;-91
2022/07/27 11:15:09;;;;;;;;;;;;;;;26.29;51.33;98338.53;106061;1283;124574;-92
2022/07/27 11:20:23;;;;;;;;;;;;;;;26.22;52.25;98332.35;107125;1281;124570;-92
2022/07/27 11:22:53;;;;;;;;;;;;;;;26.27;51.02;98332.91;106558;1282;22709;-91
2022/07/27 11:25:19;;;;;;;;;;;;;;;26.25;51.31;98331.40;106194;1281;22551;-90
2022/07/27 11:27:57;;;;;;;;;;;;;;;26.26;50.51;98326.51;106358;1281;124231;-92
2022/07/27 11:30:29;;;;;;;;;;;;;;;26.29;50.80;98320.59;107137;1281;22601;-90
2022/07/27 11:32:55;;;;;;;;;;;;;;;26.44;50.49;98317.94;106617;1282;124864;-87
2022/07/27 11:35:26;;;;;;;;;;;;;;;26.66;50.15;98314.67;107337;1281;22605;-93
2022/07/27 11:38:00;;;;;;;;;;;;;;;27.00;50.04;98312.26;106622;1282;22892;-92
2022/07/27 11:40:45;;;;;;;;;;;;;;;27.24;49.55;98308.59;107396;1283;23459;-93
2022/07/27 11:43:12;;;;;;;;;;;;;;;27.42;48.15;98304.91;107156;1282;22610;-91
2022/07/27 11:45:41;;;;;;;;;;;;;;;27.57;47.43;98300.66;106447;1281;123985;-92
2022/07/27 11:48:16;;;;;;;;;;;;;;;27.68;47.33;98297.86;106553;1281;23352;-91
2022/07/27 11:50:56;;;;;;;;;;;;;;;27.62;45.88;98300.61;106389;1283;124638;-91
2022/07/27 11:53:23;;;;;;;;;;;;;;;27.58;46.46;98294.04;106639;1282;24216;-91
2022/07/27 11:59:34;;;;;;;;;;;;;;;27.63;45.91;98298.16;107399;1281;22533;-93
2022/07/27 12:02:05;;;;;;;;;;;;;;;27.59;46.24;98293.73;107049;1282;22712;-91
2022/07/27 12:04:33;;;;;;;;;;;;;;;27.67;46.73;98294.41;106871;1281;22580;-90
2022/07/27 12:06:59;;;;;;;;;;;;;;;27.73;45.90;98293.61;106818;1281;23159;-93
2022/07/27 12:10:06;;;;;;;;;;;;;;;27.80;45.38;98294.17;106630;1281;122885;-90
2022/07/27 12:12:40;;;;;;;;;;;;;;;27.85;45.35;98293.55;106887;1281;25389;-90
2022/07/27 12:15:15;;;;;;;;;;;;;;;27.86;45.13;98292.54;106956;1281;124341;-92
2022/07/27 12:18:00;;;;;;;;;;;;;;;27.72;45.04;98298.28;107111;1281;24711;-91
2022/07/27 12:20:34;;;;;;;;;;;;;;;27.36;44.41;98301.23;107225;1281;124070;-93
2022/07/27 12:23:23;;;;;;;;;;;;;;;26.88;44.65;98302.21;106933;1282;23567;-94
2022/07/27 12:25:53;;;;;;;;;;;;;;;26.45;45.65;98290.42;107079;1282;22693;-93
2022/07/27 12:28:24;;;;;;;;;;;;;;;26.21;46.29;98294.69;106748;1282;125585;-88
2022/07/27 12:30:51;;;;;;;;;;;;;;;25.99;46.02;98296.45;106723;1282;23053;-88
2022/07/27 12:33:31;;;;;;;;;;;;;;;25.78;46.56;98302.81;106608;1281;123973;-94
2022/07/27 12:36:06;;;;;;;;;;;;;;;25.67;46.17;98305.42;106794;1282;22584;-89
2022/07/27 12:38:40;;;;;;;;;;;;;;;25.68;46.53;98302.00;106968;1281;124684;-90
2022/07/27 12:41:07;;;;;;;;;;;;;;;25.69;46.17;98299.91;106679;1281;22666;-88
2022/07/27 12:43:33;;;;;;;;;;;;;;;25.76;46.29;98291.52;106638;1281;22553;-90
2022/07/27 12:46:09;;;;;;;;;;;;;;;25.82;45.63;98294.52;105960;1282;124340;-91
2022/07/27 12:48:52;;;;;;;;;;;;;;;25.86;46.27;98291.91;107240;1281;22528;-89
2022/07/27 12:51:22;;;;;;;;;;;;;;;25.85;47.12;98288.52;106679;1281;125030;-88
2022/07/27 12:53:49;;;;;;;;;;;;;;;25.84;47.26;98287.06;106314;1281;23904;-91
2022/07/27 12:56:15;;;;;;;;;;;;;;;25.84;47.55;98283.86;106357;1282;123189;-90